WLF9634 NZQN-NZCH
Flight info
| Callsign | WLF9634 |
|---|---|
| Flight time | 0h 36m |
| Altitude | 23000 |
| Route | QN Q787 TIMJO Y153 DOPKI |
| Aircraft | B38M/M-SDE1FGHILORVWXY/HB1 |
Departure
| Time | 2026-04-29 18:05 |
|---|---|
| Airport | Queenstown Airport (NZQN) |
Arrival
| Time | 2026-04-29 18:41 |
|---|---|
| Airport | Christchurch International Airport (NZCH) |
| Time | Latitude | Longitude | Altitude | Speed | Heading |
|---|---|---|---|---|---|
| 2026-04-29 17:54 | -45.02106 | 168.73966 | 1166 ft | 0 kts | 207° |
| 2026-04-29 17:58 | -45.02097 | 168.73973 | 1165 ft | 4 kts | 206° |
| 2026-04-29 17:58 | -45.02089 | 168.73978 | 1167 ft | 4 kts | 205° |
| 2026-04-29 17:58 | -45.02084 | 168.73981 | 1165 ft | 4 kts | 205° |
| 2026-04-29 17:59 | -45.02064 | 168.73993 | 1164 ft | 4 kts | 182° |
| 2026-04-29 17:59 | -45.02050 | 168.73982 | 1167 ft | 4 kts | 103° |
| 2026-04-29 17:59 | -45.02047 | 168.73945 | 1165 ft | 4 kts | 94° |
| 2026-04-29 17:59 | -45.02047 | 168.73937 | 1167 ft | 1 kts | 94° |
| 2026-04-29 18:02 | -45.02041 | 168.73976 | 1163 ft | 9 kts | 64° |
| 2026-04-29 18:02 | -45.01990 | 168.74028 | 1167 ft | 9 kts | 24° |
| 2026-04-29 18:02 | -45.01944 | 168.73998 | 1167 ft | 8 kts | 284° |
| 2026-04-29 18:03 | -45.01949 | 168.73915 | 1171 ft | 9 kts | 261° |
| 2026-04-29 18:03 | -45.01962 | 168.73818 | 1167 ft | 11 kts | 260° |
| 2026-04-29 18:03 | -45.01987 | 168.73699 | 1170 ft | 14 kts | 253° |
| 2026-04-29 18:03 | -45.02010 | 168.73596 | 1167 ft | 8 kts | 248° |
| 2026-04-29 18:04 | -45.02014 | 168.73526 | 1168 ft | 4 kts | 319° |
| 2026-04-29 18:04 | -45.01993 | 168.73536 | 1166 ft | 2 kts | 64° |
| 2026-04-29 18:04 | -45.01993 | 168.73545 | 1167 ft | 0 kts | 91° |
| 2026-04-29 18:04 | -45.01995 | 168.73588 | 1169 ft | 16 kts | 85° |
| 2026-04-29 18:05 | -45.01916 | 168.74097 | 1169 ft | 94 kts | 78° |
| 2026-04-29 18:05 | -45.01711 | 168.75404 | 1172 ft | 174 kts | 78° |
| 2026-04-29 18:05 | -45.01391 | 168.77241 | 1822 ft | 195 kts | 69° |
| 2026-04-29 18:05 | -45.00701 | 168.78797 | 3119 ft | 185 kts | 46° |
| 2026-04-29 18:06 | -44.99661 | 168.79955 | 3800 ft | 202 kts | 17° |
| 2026-04-29 18:06 | -44.98210 | 168.80187 | 4341 ft | 221 kts | 4° |
| 2026-04-29 18:06 | -44.96732 | 168.81046 | 4788 ft | 246 kts | 40° |
| 2026-04-29 18:06 | -44.95641 | 168.83029 | 5346 ft | 264 kts | 52° |
| 2026-04-29 18:07 | -44.94517 | 168.85179 | 5890 ft | 278 kts | 51° |
| 2026-04-29 18:07 | -44.93362 | 168.87325 | 6683 ft | 280 kts | 52° |
| 2026-04-29 18:07 | -44.92146 | 168.89557 | 7396 ft | 286 kts | 52° |
| 2026-04-29 18:07 | -44.90931 | 168.91769 | 8076 ft | 291 kts | 52° |
| 2026-04-29 18:08 | -44.89683 | 168.94028 | 8787 ft | 293 kts | 52° |
| 2026-04-29 18:08 | -44.88416 | 168.96311 | 9430 ft | 298 kts | 52° |
| 2026-04-29 18:08 | -44.87124 | 168.98639 | 10049 ft | 303 kts | 52° |
| 2026-04-29 18:08 | -44.85805 | 169.01010 | 10560 ft | 310 kts | 53° |
| 2026-04-29 18:09 | -44.84470 | 169.03411 | 10952 ft | 322 kts | 53° |
| 2026-04-29 18:09 | -44.83047 | 169.05966 | 11085 ft | 341 kts | 53° |
| 2026-04-29 18:09 | -44.81543 | 169.08661 | 11153 ft | 357 kts | 53° |
| 2026-04-29 18:09 | -44.79984 | 169.11452 | 11343 ft | 365 kts | 53° |
| 2026-04-29 18:10 | -44.78404 | 169.14281 | 11997 ft | 369 kts | 53° |
| 2026-04-29 18:10 | -44.76812 | 169.17130 | 12976 ft | 374 kts | 53° |
| 2026-04-29 18:10 | -44.75184 | 169.20036 | 13754 ft | 381 kts | 53° |
| 2026-04-29 18:10 | -44.73536 | 169.22975 | 14604 ft | 385 kts | 53° |
| 2026-04-29 18:11 | -44.71859 | 169.25963 | 15389 ft | 390 kts | 53° |
| 2026-04-29 18:11 | -44.70168 | 169.28974 | 16154 ft | 395 kts | 53° |
| 2026-04-29 18:11 | -44.68448 | 169.32032 | 16896 ft | 401 kts | 53° |
| 2026-04-29 18:11 | -44.66709 | 169.35122 | 17618 ft | 406 kts | 53° |
| 2026-04-29 18:12 | -44.64969 | 169.38210 | 18273 ft | 411 kts | 52° |
| 2026-04-29 18:12 | -44.63185 | 169.41375 | 18968 ft | 415 kts | 52° |
| 2026-04-29 18:12 | -44.61379 | 169.44571 | 19616 ft | 420 kts | 52° |
| 2026-04-29 18:12 | -44.59559 | 169.47792 | 20182 ft | 425 kts | 52° |
| 2026-04-29 18:13 | -44.57715 | 169.51049 | 20873 ft | 427 kts | 52° |
| 2026-04-29 18:13 | -44.55855 | 169.54333 | 21410 ft | 433 kts | 52° |
| 2026-04-29 18:13 | -44.53974 | 169.57651 | 22147 ft | 432 kts | 53° |
| 2026-04-29 18:13 | -44.52104 | 169.60944 | 22895 ft | 431 kts | 53° |
| 2026-04-29 18:14 | -44.50227 | 169.64244 | 23399 ft | 436 kts | 53° |
| 2026-04-29 18:14 | -44.48327 | 169.67585 | 23498 ft | 443 kts | 53° |
| 2026-04-29 18:14 | -44.46389 | 169.71026 | 23519 ft | 454 kts | 57° |
| 2026-04-29 18:14 | -44.44797 | 169.74849 | 23545 ft | 456 kts | 65° |
| 2026-04-29 18:15 | -44.43296 | 169.78762 | 23548 ft | 457 kts | 64° |
| 2026-04-29 18:15 | -44.41803 | 169.82621 | 23569 ft | 457 kts | 64° |
| 2026-04-29 18:15 | -44.40287 | 169.86539 | 23559 ft | 457 kts | 64° |
| 2026-04-29 18:15 | -44.38775 | 169.90442 | 23560 ft | 457 kts | 64° |
| 2026-04-29 18:16 | -44.37259 | 169.94350 | 23557 ft | 457 kts | 64° |
| 2026-04-29 18:16 | -44.35742 | 169.98257 | 23554 ft | 457 kts | 64° |
| 2026-04-29 18:16 | -44.34220 | 170.02171 | 23560 ft | 457 kts | 64° |
| 2026-04-29 18:16 | -44.32702 | 170.06069 | 23559 ft | 457 kts | 64° |
| 2026-04-29 18:17 | -44.31182 | 170.09966 | 23559 ft | 457 kts | 64° |
| 2026-04-29 18:17 | -44.29660 | 170.13864 | 23558 ft | 457 kts | 64° |
| 2026-04-29 18:17 | -44.28136 | 170.17761 | 23559 ft | 457 kts | 64° |
| 2026-04-29 18:17 | -44.26612 | 170.21652 | 23558 ft | 457 kts | 64° |
| 2026-04-29 18:18 | -44.25086 | 170.25542 | 23560 ft | 457 kts | 64° |
| 2026-04-29 18:18 | -44.23574 | 170.29393 | 23560 ft | 457 kts | 64° |
| 2026-04-29 18:18 | -44.22044 | 170.33286 | 23556 ft | 457 kts | 64° |
| 2026-04-29 18:18 | -44.20513 | 170.37173 | 23564 ft | 457 kts | 64° |
| 2026-04-29 18:19 | -44.19496 | 170.39752 | 23559 ft | 457 kts | 64° |
| 2026-04-29 18:19 | -44.17965 | 170.43631 | 23559 ft | 457 kts | 64° |
| 2026-04-29 18:19 | -44.16432 | 170.47511 | 23559 ft | 457 kts | 64° |
| 2026-04-29 18:19 | -44.14890 | 170.51406 | 23559 ft | 458 kts | 64° |
| 2026-04-29 18:20 | -44.13354 | 170.55283 | 23559 ft | 458 kts | 64° |
| 2026-04-29 18:20 | -44.11814 | 170.59163 | 23562 ft | 458 kts | 64° |
| 2026-04-29 18:20 | -44.10267 | 170.63055 | 23554 ft | 458 kts | 64° |
| 2026-04-29 18:20 | -44.08723 | 170.66937 | 23563 ft | 459 kts | 64° |
| 2026-04-29 18:21 | -44.07174 | 170.70823 | 23558 ft | 459 kts | 63° |
| 2026-04-29 18:21 | -44.05626 | 170.74704 | 23560 ft | 459 kts | 64° |
| 2026-04-29 18:21 | -44.04074 | 170.78586 | 23560 ft | 459 kts | 63° |
| 2026-04-29 18:21 | -44.02539 | 170.82421 | 23558 ft | 459 kts | 63° |
| 2026-04-29 18:22 | -44.00985 | 170.86301 | 23558 ft | 459 kts | 63° |
| 2026-04-29 18:22 | -43.99429 | 170.90177 | 23561 ft | 459 kts | 63° |
| 2026-04-29 18:22 | -43.97881 | 170.94031 | 23281 ft | 454 kts | 63° |
| 2026-04-29 18:22 | -43.96340 | 170.97862 | 22548 ft | 455 kts | 63° |
| 2026-04-29 18:23 | -43.94806 | 171.01668 | 22023 ft | 450 kts | 63° |
| 2026-04-29 18:23 | -43.93285 | 171.05439 | 21535 ft | 444 kts | 63° |
| 2026-04-29 18:23 | -43.91784 | 171.09154 | 21027 ft | 439 kts | 63° |
| 2026-04-29 18:23 | -43.90300 | 171.12827 | 20552 ft | 434 kts | 63° |
| 2026-04-29 18:24 | -43.88849 | 171.16408 | 20066 ft | 430 kts | 63° |
| 2026-04-29 18:24 | -43.87391 | 171.20004 | 19590 ft | 426 kts | 63° |
| 2026-04-29 18:24 | -43.85938 | 171.23582 | 19134 ft | 421 kts | 63° |
| 2026-04-29 18:24 | -43.84506 | 171.27105 | 18657 ft | 418 kts | 63° |
| 2026-04-29 18:25 | -43.83087 | 171.30592 | 18187 ft | 415 kts | 63° |
| 2026-04-29 18:25 | -43.81675 | 171.34056 | 17731 ft | 411 kts | 63° |
| 2026-04-29 18:25 | -43.80271 | 171.37498 | 17277 ft | 408 kts | 63° |
| 2026-04-29 18:25 | -43.78881 | 171.40902 | 16834 ft | 404 kts | 63° |
| 2026-04-29 18:26 | -43.77500 | 171.44278 | 16396 ft | 401 kts | 63° |
| 2026-04-29 18:26 | -43.76150 | 171.47577 | 15963 ft | 398 kts | 63° |
| 2026-04-29 18:26 | -43.74786 | 171.50908 | 15525 ft | 395 kts | 63° |
| 2026-04-29 18:26 | -43.73439 | 171.54193 | 15089 ft | 392 kts | 63° |
| 2026-04-29 18:27 | -43.72098 | 171.57457 | 14633 ft | 389 kts | 63° |
| 2026-04-29 18:27 | -43.70764 | 171.60703 | 14206 ft | 386 kts | 64° |
| 2026-04-29 18:27 | -43.69458 | 171.63932 | 13760 ft | 383 kts | 65° |
| 2026-04-29 18:27 | -43.68198 | 171.67165 | 13290 ft | 381 kts | 65° |
| 2026-04-29 18:28 | -43.66940 | 171.70373 | 12902 ft | 377 kts | 65° |
| 2026-04-29 18:28 | -43.65696 | 171.73541 | 12494 ft | 374 kts | 65° |
| 2026-04-29 18:28 | -43.64458 | 171.76688 | 12077 ft | 371 kts | 65° |
| 2026-04-29 18:28 | -43.63227 | 171.79816 | 11653 ft | 369 kts | 65° |
| 2026-04-29 18:29 | -43.62012 | 171.82895 | 11379 ft | 362 kts | 65° |
| 2026-04-29 18:29 | -43.61609 | 171.83916 | 11342 ft | 357 kts | 65° |
| 2026-04-29 18:29 | -43.60760 | 171.86066 | 11247 ft | 348 kts | 65° |
| 2026-04-29 18:29 | -43.59609 | 171.88979 | 10887 ft | 343 kts | 64° |
| 2026-04-29 18:30 | -43.58472 | 171.91854 | 10471 ft | 340 kts | 64° |
| 2026-04-29 18:30 | -43.57348 | 171.94693 | 10173 ft | 333 kts | 64° |
| 2026-04-29 18:30 | -43.56255 | 171.97453 | 10059 ft | 320 kts | 63° |
| 2026-04-29 18:30 | -43.55203 | 172.00107 | 9869 ft | 311 kts | 63° |
| 2026-04-29 18:31 | -43.54184 | 172.02678 | 9506 ft | 309 kts | 63° |
| 2026-04-29 18:31 | -43.53143 | 172.05304 | 9149 ft | 308 kts | 62° |
| 2026-04-29 18:31 | -43.52131 | 172.07851 | 8836 ft | 304 kts | 62° |
| 2026-04-29 18:31 | -43.51121 | 172.10393 | 8523 ft | 301 kts | 62° |
| 2026-04-29 18:32 | -43.50115 | 172.12918 | 8221 ft | 298 kts | 62° |
| 2026-04-29 18:32 | -43.48131 | 172.17908 | 7558 ft | 294 kts | 63° |
| 2026-04-29 18:32 | -43.47148 | 172.20368 | 7285 ft | 292 kts | 63° |
| 2026-04-29 18:33 | -43.46175 | 172.22812 | 6986 ft | 291 kts | 63° |
| 2026-04-29 18:33 | -43.45213 | 172.25221 | 6689 ft | 290 kts | 63° |
| 2026-04-29 18:33 | -43.44243 | 172.27646 | 6409 ft | 288 kts | 63° |
| 2026-04-29 18:33 | -43.43277 | 172.30055 | 6109 ft | 286 kts | 64° |
| 2026-04-29 18:34 | -43.42322 | 172.32441 | 5817 ft | 283 kts | 64° |
| 2026-04-29 18:34 | -43.41688 | 172.34020 | 5632 ft | 274 kts | 64° |
| 2026-04-29 18:34 | -43.40503 | 172.36974 | 5271 ft | 259 kts | 64° |
| 2026-04-29 18:34 | -43.39838 | 172.39201 | 4947 ft | 246 kts | 84° |
| 2026-04-29 18:35 | -43.39625 | 172.41476 | 4688 ft | 235 kts | 86° |
| 2026-04-29 18:35 | -43.39418 | 172.43659 | 4462 ft | 225 kts | 86° |
| 2026-04-29 18:35 | -43.39222 | 172.45753 | 4238 ft | 216 kts | 87° |
| 2026-04-29 18:35 | -43.39037 | 172.47746 | 4061 ft | 204 kts | 87° |
| 2026-04-29 18:36 | -43.38862 | 172.49643 | 3849 ft | 197 kts | 87° |
| 2026-04-29 18:36 | -43.38692 | 172.51485 | 3625 ft | 192 kts | 87° |
| 2026-04-29 18:36 | -43.38526 | 172.53281 | 3414 ft | 187 kts | 87° |
| 2026-04-29 18:36 | -43.38365 | 172.55007 | 3206 ft | 182 kts | 87° |
| 2026-04-29 18:37 | -43.38205 | 172.56744 | 3047 ft | 181 kts | 87° |
| 2026-04-29 18:37 | -43.38047 | 172.58436 | 2873 ft | 180 kts | 87° |
| 2026-04-29 18:37 | -43.37890 | 172.60138 | 2675 ft | 178 kts | 88° |
| 2026-04-29 18:37 | -43.38113 | 172.61733 | 2403 ft | 167 kts | 132° |
| 2026-04-29 18:38 | -43.38981 | 172.62733 | 2199 ft | 163 kts | 162° |
| 2026-04-29 18:38 | -43.40074 | 172.62744 | 2055 ft | 160 kts | 198° |
| 2026-04-29 18:38 | -43.41103 | 172.62112 | 1981 ft | 163 kts | 210° |
| 2026-04-29 18:38 | -43.41998 | 172.61222 | 1725 ft | 155 kts | 220° |
| 2026-04-29 18:39 | -43.42809 | 172.60266 | 1358 ft | 154 kts | 219° |
| 2026-04-29 18:39 | -43.43636 | 172.59325 | 936 ft | 152 kts | 219° |
| 2026-04-29 18:39 | -43.44426 | 172.58428 | 711 ft | 149 kts | 219° |
| 2026-04-29 18:39 | -43.45232 | 172.57513 | 640 ft | 151 kts | 218° |
| 2026-04-29 18:40 | -43.46026 | 172.56565 | 517 ft | 151 kts | 221° |
| 2026-04-29 18:40 | -43.46823 | 172.55622 | 336 ft | 149 kts | 219° |
| 2026-04-29 18:40 | -43.47588 | 172.54733 | 154 ft | 140 kts | 219° |
| 2026-04-29 18:40 | -43.48290 | 172.53926 | 110 ft | 109 kts | 221° |
| 2026-04-29 18:41 | -43.48867 | 172.53487 | 113 ft | 0 kts | 134° |
| 2026-04-29 18:41 | -43.48877 | 172.53509 | 112 ft | 9 kts | 113° |
| 2026-04-29 18:42 | -43.48852 | 172.53595 | 111 ft | 13 kts | 42° |
| 2026-04-29 18:42 | -43.48822 | 172.53708 | 109 ft | 17 kts | 120° |
| 2026-04-29 18:42 | -43.48863 | 172.53778 | 111 ft | 4 kts | 128° |
| 2026-04-29 18:42 | -43.48866 | 172.53783 | 111 ft | 0 kts | 128° |